Hovedside
METAR-TAF:

METAR-TAF

Lufthavner :

Luleå, Sverige

Luleå lufthavn

breddegrad: 65-33N, lengdegrad: 022-08E, høyde over havet: 17 m

Gjeldene værobservasjon

Denne rapporten ble laget for 55 minutter siden, klokken 19:20 UTC
Vind 16 kt fra Nord-nordvest
Temperatur 5°C
Luftfuktighet 81%
Trykk 1005 hPa
Sikt 10 km eller mer
Brutte skyer i en høyde av 2100 ft
Overskyet i en høyde av 2600 ft

METAR: ESPA 281920Z 34016KT 9999 BKN021 OVC026 05/02 Q1005

Tid: 22:15 (20:15 UTC)

Varsel

Denne rapporten ble laget for 2 timer og 45 minutter siden, klokken 17:30 UTC
Varsel gyldig fra 28. klokken 18 UTC til 28. klokken 23 UTC
Vind 9 kt fra Nord
Sikt 10 km eller mer
Spredte skyer i en høyde av 1400 ft
Brutte skyer i en høyde av 2000 ft

TAF: ESPA 281730Z 2818/2823 35009KT 9999 SCT014 BKN020

Værobservasjoner og værvarsel for over 4000 flyplasser (METAR- og TAF-rapporter).

Tilgjengelige stasjoner er representert av de røde og gule prikkene på kartet.

Hold musepekeren over prikken for å se navnet på stasjonen.

Klikk så for å se værobservasjoner og -varsler.

For å forandre kartet kan du klikke på den grønne knappen med svart kryss for å zoome inn, på den grønne knappen med strek for å zoome ut, eller på de grønne pilene for å se tilstøtende kart.


METAR-TAF: